sensor_id;sensor_type;location;lat;lon;timestamp;P1;durP1;ratioP1;P2;durP2;ratioP2
47403;SDS011;33157;51.508;4.288;2023-04-25T00:02:19;21.50;;;4.57;;
47403;SDS011;33157;51.508;4.288;2023-04-25T00:07:20;20.58;;;4.22;;
47403;SDS011;33157;51.508;4.288;2023-04-25T00:12:21;20.07;;;5.13;;
47403;SDS011;33157;51.508;4.288;2023-04-25T00:17:23;19.92;;;5.20;;
47403;SDS011;33157;51.508;4.288;2023-04-25T00:22:26;17.50;;;4.70;;
47403;SDS011;33157;51.508;4.288;2023-04-25T00:27:27;21.92;;;5.03;;
47403;SDS011;33157;51.508;4.288;2023-04-25T00:32:29;18.73;;;5.43;;
47403;SDS011;33157;51.508;4.288;2023-04-25T00:37:31;23.10;;;5.23;;
47403;SDS011;33157;51.508;4.288;2023-04-25T00:42:32;24.60;;;5.90;;
47403;SDS011;33157;51.508;4.288;2023-04-25T00:52:37;19.52;;;4.82;;
47403;SDS011;33157;51.508;4.288;2023-04-25T00:57:40;22.52;;;4.93;;
47403;SDS011;33157;51.508;4.288;2023-04-25T01:02:42;24.47;;;5.30;;
47403;SDS011;33157;51.508;4.288;2023-04-25T01:07:44;22.05;;;4.70;;
47403;SDS011;33157;51.508;4.288;2023-04-25T01:17:47;23.05;;;5.10;;
47403;SDS011;33157;51.508;4.288;2023-04-25T01:22:51;21.88;;;5.55;;
47403;SDS011;33157;51.508;4.288;2023-04-25T01:27:52;23.65;;;5.43;;
47403;SDS011;33157;51.508;4.288;2023-04-25T01:32:54;27.90;;;6.18;;
47403;SDS011;33157;51.508;4.288;2023-04-25T01:37:57;24.17;;;5.65;;
47403;SDS011;33157;51.508;4.288;2023-04-25T01:42:59;18.08;;;4.75;;
47403;SDS011;33157;51.508;4.288;2023-04-25T01:48:01;22.98;;;4.90;;
47403;SDS011;33157;51.508;4.288;2023-04-25T01:53:03;23.30;;;6.28;;
47403;SDS011;33157;51.508;4.288;2023-04-25T01:58:05;20.23;;;6.05;;
47403;SDS011;33157;51.508;4.288;2023-04-25T02:03:10;23.98;;;5.20;;
47403;SDS011;33157;51.508;4.288;2023-04-25T02:08:13;17.98;;;4.80;;
47403;SDS011;33157;51.508;4.288;2023-04-25T02:13:13;21.80;;;4.50;;
47403;SDS011;33157;51.508;4.288;2023-04-25T02:18:16;22.05;;;4.13;;
47403;SDS011;33157;51.508;4.288;2023-04-25T02:23:17;20.20;;;4.15;;
47403;SDS011;33157;51.508;4.288;2023-04-25T02:28:20;20.00;;;4.20;;
47403;SDS011;33157;51.508;4.288;2023-04-25T02:33:21;17.13;;;4.80;;
47403;SDS011;33157;51.508;4.288;2023-04-25T02:38:24;16.38;;;4.38;;
47403;SDS011;33157;51.508;4.288;2023-04-25T02:43:27;18.48;;;5.03;;
47403;SDS011;33157;51.508;4.288;2023-04-25T02:48:29;21.60;;;5.07;;
47403;SDS011;33157;51.508;4.288;2023-04-25T02:53:30;23.10;;;3.90;;
47403;SDS011;33157;51.508;4.288;2023-04-25T02:58:39;23.92;;;4.55;;
47403;SDS011;33157;51.508;4.288;2023-04-25T03:03:41;21.92;;;4.63;;
47403;SDS011;33157;51.508;4.288;2023-04-25T03:08:42;24.35;;;4.22;;
47403;SDS011;33157;51.508;4.288;2023-04-25T03:13:43;10.90;;;3.63;;
47403;SDS011;33157;51.508;4.288;2023-04-25T03:18:45;19.27;;;4.20;;
47403;SDS011;33157;51.508;4.288;2023-04-25T03:23:46;19.13;;;4.73;;
47403;SDS011;33157;51.508;4.288;2023-04-25T03:28:50;18.00;;;4.30;;
47403;SDS011;33157;51.508;4.288;2023-04-25T03:33:52;17.55;;;4.78;;
47403;SDS011;33157;51.508;4.288;2023-04-25T03:38:53;16.45;;;4.80;;
47403;SDS011;33157;51.508;4.288;2023-04-25T03:43:54;22.25;;;5.90;;
47403;SDS011;33157;51.508;4.288;2023-04-25T03:48:57;23.23;;;4.43;;
47403;SDS011;33157;51.508;4.288;2023-04-25T03:53:59;19.48;;;4.60;;
47403;SDS011;33157;51.508;4.288;2023-04-25T03:59:01;15.65;;;4.55;;
47403;SDS011;33157;51.508;4.288;2023-04-25T04:04:03;20.90;;;5.35;;
47403;SDS011;33157;51.508;4.288;2023-04-25T04:09:04;14.80;;;4.43;;
47403;SDS011;33157;51.508;4.288;2023-04-25T04:14:25;20.67;;;4.63;;
47403;SDS011;33157;51.508;4.288;2023-04-25T04:19:26;20.52;;;4.00;;
47403;SDS011;33157;51.508;4.288;2023-04-25T04:24:27;15.07;;;3.83;;
47403;SDS011;33157;51.508;4.288;2023-04-25T04:29:29;14.90;;;3.37;;
47403;SDS011;33157;51.508;4.288;2023-04-25T04:34:30;19.17;;;3.67;;
47403;SDS011;33157;51.508;4.288;2023-04-25T04:39:31;10.77;;;2.50;;
47403;SDS011;33157;51.508;4.288;2023-04-25T04:44:33;12.93;;;3.78;;
47403;SDS011;33157;51.508;4.288;2023-04-25T04:49:35;12.70;;;2.83;;
47403;SDS011;33157;51.508;4.288;2023-04-25T04:54:38;17.90;;;3.30;;
47403;SDS011;33157;51.508;4.288;2023-04-25T04:59:39;21.25;;;4.05;;
47403;SDS011;33157;51.508;4.288;2023-04-25T05:04:41;10.88;;;3.10;;
47403;SDS011;33157;51.508;4.288;2023-04-25T05:09:44;21.63;;;3.57;;
47403;SDS011;33157;51.508;4.288;2023-04-25T05:14:45;13.60;;;3.05;;
47403;SDS011;33157;51.508;4.288;2023-04-25T05:19:46;8.45;;;2.40;;
47403;SDS011;33157;51.508;4.288;2023-04-25T05:24:48;10.98;;;2.60;;
47403;SDS011;33157;51.508;4.288;2023-04-25T05:29:54;12.48;;;3.50;;
47403;SDS011;33157;51.508;4.288;2023-04-25T05:35:03;12.75;;;3.35;;
47403;SDS011;33157;51.508;4.288;2023-04-25T05:40:07;13.93;;;4.10;;
47403;SDS011;33157;51.508;4.288;2023-04-25T05:45:12;12.20;;;2.72;;
47403;SDS011;33157;51.508;4.288;2023-04-25T05:50:15;10.88;;;2.70;;
47403;SDS011;33157;51.508;4.288;2023-04-25T05:55:16;13.85;;;3.38;;
47403;SDS011;33157;51.508;4.288;2023-04-25T06:00:35;14.68;;;3.30;;
47403;SDS011;33157;51.508;4.288;2023-04-25T06:05:38;14.45;;;3.13;;
47403;SDS011;33157;51.508;4.288;2023-04-25T06:10:40;14.40;;;2.92;;
47403;SDS011;33157;51.508;4.288;2023-04-25T06:20:45;12.75;;;2.45;;
47403;SDS011;33157;51.508;4.288;2023-04-25T06:25:49;6.70;;;2.10;;
47403;SDS011;33157;51.508;4.288;2023-04-25T06:30:52;10.18;;;1.73;;
47403;SDS011;33157;51.508;4.288;2023-04-25T06:35:55;11.48;;;2.65;;
47403;SDS011;33157;51.508;4.288;2023-04-25T06:40:58;12.98;;;2.08;;
47403;SDS011;33157;51.508;4.288;2023-04-25T06:45:59;8.48;;;1.98;;
47403;SDS011;33157;51.508;4.288;2023-04-25T06:51:02;14.73;;;1.95;;
47403;SDS011;33157;51.508;4.288;2023-04-25T06:56:04;11.23;;;1.95;;
47403;SDS011;33157;51.508;4.288;2023-04-25T07:01:07;10.43;;;2.13;;
47403;SDS011;33157;51.508;4.288;2023-04-25T07:06:09;8.32;;;1.48;;
47403;SDS011;33157;51.508;4.288;2023-04-25T07:11:11;6.82;;;1.67;;
47403;SDS011;33157;51.508;4.288;2023-04-25T07:16:14;5.93;;;1.40;;
47403;SDS011;33157;51.508;4.288;2023-04-25T07:21:16;6.88;;;1.27;;
47403;SDS011;33157;51.508;4.288;2023-04-25T07:26:17;3.40;;;1.10;;
47403;SDS011;33157;51.508;4.288;2023-04-25T07:31:19;7.53;;;1.30;;
47403;SDS011;33157;51.508;4.288;2023-04-25T07:36:22;5.93;;;1.40;;
47403;SDS011;33157;51.508;4.288;2023-04-25T07:46:26;4.32;;;1.65;;
47403;SDS011;33157;51.508;4.288;2023-04-25T07:51:27;4.03;;;1.63;;
47403;SDS011;33157;51.508;4.288;2023-04-25T07:56:29;8.27;;;1.63;;
47403;SDS011;33157;51.508;4.288;2023-04-25T08:01:31;4.97;;;1.60;;
47403;SDS011;33157;51.508;4.288;2023-04-25T08:06:32;8.73;;;1.70;;
47403;SDS011;33157;51.508;4.288;2023-04-25T08:11:37;10.60;;;1.95;;
47403;SDS011;33157;51.508;4.288;2023-04-25T08:16:41;7.35;;;1.40;;
47403;SDS011;33157;51.508;4.288;2023-04-25T08:21:43;5.90;;;1.48;;
47403;SDS011;33157;51.508;4.288;2023-04-25T08:26:44;7.75;;;1.15;;
47403;SDS011;33157;51.508;4.288;2023-04-25T08:31:45;5.13;;;1.70;;
47403;SDS011;33157;51.508;4.288;2023-04-25T08:36:47;8.18;;;1.60;;
47403;SDS011;33157;51.508;4.288;2023-04-25T08:41:53;7.32;;;1.40;;
47403;SDS011;33157;51.508;4.288;2023-04-25T08:46:58;6.53;;;1.27;;
47403;SDS011;33157;51.508;4.288;2023-04-25T08:52:02;8.05;;;1.67;;
47403;SDS011;33157;51.508;4.288;2023-04-25T08:57:07;8.55;;;1.42;;
47403;SDS011;33157;51.508;4.288;2023-04-25T09:02:08;9.65;;;1.90;;
47403;SDS011;33157;51.508;4.288;2023-04-25T09:07:12;15.48;;;2.22;;
47403;SDS011;33157;51.508;4.288;2023-04-25T09:12:17;6.70;;;1.17;;
47403;SDS011;33157;51.508;4.288;2023-04-25T09:17:25;6.85;;;1.20;;
47403;SDS011;33157;51.508;4.288;2023-04-25T09:22:32;2.87;;;0.87;;
47403;SDS011;33157;51.508;4.288;2023-04-25T09:27:36;4.53;;;1.10;;
47403;SDS011;33157;51.508;4.288;2023-04-25T09:32:57;2.95;;;0.82;;
47403;SDS011;33157;51.508;4.288;2023-04-25T09:38:22;6.53;;;1.15;;
47403;SDS011;33157;51.508;4.288;2023-04-25T09:43:24;7.03;;;1.20;;
47403;SDS011;33157;51.508;4.288;2023-04-25T09:48:27;6.35;;;1.52;;
47403;SDS011;33157;51.508;4.288;2023-04-25T09:53:30;5.05;;;1.13;;
47403;SDS011;33157;51.508;4.288;2023-04-25T09:58:32;7.97;;;1.38;;
47403;SDS011;33157;51.508;4.288;2023-04-25T10:03:34;4.40;;;0.95;;
47403;SDS011;33157;51.508;4.288;2023-04-25T10:08:38;5.32;;;1.00;;
47403;SDS011;33157;51.508;4.288;2023-04-25T10:13:41;6.22;;;0.98;;
47403;SDS011;33157;51.508;4.288;2023-04-25T10:18:46;3.22;;;1.00;;
47403;SDS011;33157;51.508;4.288;2023-04-25T10:23:48;5.47;;;1.17;;
47403;SDS011;33157;51.508;4.288;2023-04-25T10:28:57;7.70;;;1.70;;
47403;SDS011;33157;51.508;4.288;2023-04-25T10:33:59;4.82;;;1.05;;
47403;SDS011;33157;51.508;4.288;2023-04-25T10:39:04;6.10;;;1.20;;
47403;SDS011;33157;51.508;4.288;2023-04-25T10:44:10;8.55;;;2.22;;
47403;SDS011;33157;51.508;4.288;2023-04-25T10:54:29;5.68;;;1.30;;
47403;SDS011;33157;51.508;4.288;2023-04-25T10:59:32;7.47;;;1.10;;
47403;SDS011;33157;51.508;4.288;2023-04-25T11:04:33;10.80;;;1.33;;
47403;SDS011;33157;51.508;4.288;2023-04-25T11:09:37;6.72;;;1.15;;
47403;SDS011;33157;51.508;4.288;2023-04-25T11:14:41;7.68;;;1.23;;
47403;SDS011;33157;51.508;4.288;2023-04-25T11:19:43;8.77;;;1.27;;
47403;SDS011;33157;51.508;4.288;2023-04-25T11:24:50;5.65;;;1.92;;
47403;SDS011;33157;51.508;4.288;2023-04-25T11:29:52;6.78;;;1.10;;
47403;SDS011;33157;51.508;4.288;2023-04-25T11:34:53;7.50;;;1.30;;
47403;SDS011;33157;51.508;4.288;2023-04-25T11:39:56;4.05;;;1.45;;
47403;SDS011;33157;51.508;4.288;2023-04-25T11:45:00;6.82;;;1.63;;
47403;SDS011;33157;51.508;4.288;2023-04-25T11:50:05;6.95;;;1.70;;
47403;SDS011;33157;51.508;4.288;2023-04-25T11:55:14;7.13;;;1.50;;
47403;SDS011;33157;51.508;4.288;2023-04-25T12:00:25;6.03;;;1.48;;
47403;SDS011;33157;51.508;4.288;2023-04-25T12:05:28;7.03;;;1.60;;
47403;SDS011;33157;51.508;4.288;2023-04-25T12:10:39;7.53;;;1.20;;
47403;SDS011;33157;51.508;4.288;2023-04-25T12:15:44;3.67;;;1.25;;
47403;SDS011;33157;51.508;4.288;2023-04-25T12:20:46;9.15;;;1.45;;
47403;SDS011;33157;51.508;4.288;2023-04-25T12:25:47;8.45;;;1.60;;
47403;SDS011;33157;51.508;4.288;2023-04-25T12:36:01;10.20;;;1.42;;
47403;SDS011;33157;51.508;4.288;2023-04-25T12:41:09;9.70;;;1.50;;
47403;SDS011;33157;51.508;4.288;2023-04-25T12:46:11;8.05;;;1.30;;
47403;SDS011;33157;51.508;4.288;2023-04-25T12:51:13;7.30;;;1.10;;
47403;SDS011;33157;51.508;4.288;2023-04-25T12:56:16;16.10;;;2.55;;
47403;SDS011;33157;51.508;4.288;2023-04-25T13:01:18;7.15;;;1.30;;
47403;SDS011;33157;51.508;4.288;2023-04-25T13:06:20;9.07;;;1.70;;
47403;SDS011;33157;51.508;4.288;2023-04-25T13:11:21;7.60;;;1.13;;
47403;SDS011;33157;51.508;4.288;2023-04-25T13:16:23;7.25;;;1.08;;
47403;SDS011;33157;51.508;4.288;2023-04-25T13:21:25;5.85;;;1.48;;
47403;SDS011;33157;51.508;4.288;2023-04-25T13:26:29;13.02;;;1.40;;
47403;SDS011;33157;51.508;4.288;2023-04-25T13:31:31;5.45;;;1.13;;
47403;SDS011;33157;51.508;4.288;2023-04-25T13:36:32;5.88;;;1.30;;
47403;SDS011;33157;51.508;4.288;2023-04-25T13:41:37;5.95;;;1.05;;
47403;SDS011;33157;51.508;4.288;2023-04-25T13:46:38;5.88;;;1.25;;
47403;SDS011;33157;51.508;4.288;2023-04-25T13:51:40;6.30;;;1.13;;
47403;SDS011;33157;51.508;4.288;2023-04-25T13:56:48;6.10;;;1.00;;
47403;SDS011;33157;51.508;4.288;2023-04-25T14:01:51;4.88;;;1.02;;
47403;SDS011;33157;51.508;4.288;2023-04-25T14:06:52;4.07;;;0.95;;
47403;SDS011;33157;51.508;4.288;2023-04-25T14:11:58;5.65;;;1.15;;
47403;SDS011;33157;51.508;4.288;2023-04-25T14:17:00;5.50;;;1.35;;
47403;SDS011;33157;51.508;4.288;2023-04-25T14:22:08;7.40;;;1.20;;
47403;SDS011;33157;51.508;4.288;2023-04-25T14:27:11;6.15;;;1.30;;
47403;SDS011;33157;51.508;4.288;2023-04-25T14:32:17;7.47;;;1.60;;
47403;SDS011;33157;51.508;4.288;2023-04-25T14:37:19;5.78;;;1.30;;
47403;SDS011;33157;51.508;4.288;2023-04-25T14:42:21;5.22;;;1.38;;
47403;SDS011;33157;51.508;4.288;2023-04-25T14:47:23;3.00;;;0.95;;
47403;SDS011;33157;51.508;4.288;2023-04-25T14:52:29;4.30;;;1.00;;
47403;SDS011;33157;51.508;4.288;2023-04-25T14:57:30;5.63;;;1.20;;
47403;SDS011;33157;51.508;4.288;2023-04-25T15:02:36;6.75;;;1.55;;
47403;SDS011;33157;51.508;4.288;2023-04-25T15:07:40;5.63;;;1.50;;
47403;SDS011;33157;51.508;4.288;2023-04-25T15:12:45;6.88;;;1.13;;
47403;SDS011;33157;51.508;4.288;2023-04-25T15:18:05;9.15;;;1.98;;
47403;SDS011;33157;51.508;4.288;2023-04-25T15:23:07;8.02;;;1.63;;
47403;SDS011;33157;51.508;4.288;2023-04-25T15:28:25;12.73;;;1.70;;
47403;SDS011;33157;51.508;4.288;2023-04-25T15:33:26;6.63;;;1.73;;
47403;SDS011;33157;51.508;4.288;2023-04-25T15:38:27;7.78;;;1.30;;
47403;SDS011;33157;51.508;4.288;2023-04-25T15:43:28;10.45;;;2.00;;
47403;SDS011;33157;51.508;4.288;2023-04-25T15:48:35;4.03;;;1.10;;
47403;SDS011;33157;51.508;4.288;2023-04-25T15:53:36;5.80;;;1.42;;
47403;SDS011;33157;51.508;4.288;2023-04-25T15:58:37;5.22;;;1.15;;
47403;SDS011;33157;51.508;4.288;2023-04-25T16:03:39;3.78;;;1.20;;
47403;SDS011;33157;51.508;4.288;2023-04-25T16:08:42;4.50;;;1.00;;
47403;SDS011;33157;51.508;4.288;2023-04-25T16:13:43;4.90;;;1.20;;
47403;SDS011;33157;51.508;4.288;2023-04-25T16:18:44;4.75;;;1.02;;
47403;SDS011;33157;51.508;4.288;2023-04-25T16:23:46;4.75;;;1.23;;
47403;SDS011;33157;51.508;4.288;2023-04-25T16:28:48;5.30;;;0.73;;
47403;SDS011;33157;51.508;4.288;2023-04-25T16:33:50;3.08;;;0.85;;
47403;SDS011;33157;51.508;4.288;2023-04-25T16:38:52;7.95;;;1.73;;
47403;SDS011;33157;51.508;4.288;2023-04-25T16:43:53;11.25;;;1.08;;
47403;SDS011;33157;51.508;4.288;2023-04-25T16:48:54;6.60;;;1.63;;
47403;SDS011;33157;51.508;4.288;2023-04-25T16:53:57;7.55;;;1.65;;
47403;SDS011;33157;51.508;4.288;2023-04-25T16:58:58;3.90;;;1.15;;
47403;SDS011;33157;51.508;4.288;2023-04-25T17:04:01;4.63;;;1.50;;
47403;SDS011;33157;51.508;4.288;2023-04-25T17:09:08;8.90;;;2.05;;
47403;SDS011;33157;51.508;4.288;2023-04-25T17:14:09;7.63;;;1.75;;
47403;SDS011;33157;51.508;4.288;2023-04-25T17:19:11;5.77;;;1.27;;
47403;SDS011;33157;51.508;4.288;2023-04-25T17:24:12;6.20;;;1.05;;
47403;SDS011;33157;51.508;4.288;2023-04-25T17:34:17;5.30;;;1.15;;
47403;SDS011;33157;51.508;4.288;2023-04-25T17:39:18;4.95;;;1.38;;
47403;SDS011;33157;51.508;4.288;2023-04-25T17:44:19;8.60;;;1.60;;
47403;SDS011;33157;51.508;4.288;2023-04-25T17:49:24;8.35;;;1.85;;
47403;SDS011;33157;51.508;4.288;2023-04-25T17:54:25;7.05;;;1.42;;
47403;SDS011;33157;51.508;4.288;2023-04-25T17:59:29;10.65;;;2.10;;
47403;SDS011;33157;51.508;4.288;2023-04-25T18:04:39;7.20;;;1.45;;
47403;SDS011;33157;51.508;4.288;2023-04-25T18:09:41;8.18;;;1.50;;
47403;SDS011;33157;51.508;4.288;2023-04-25T18:14:43;9.40;;;2.78;;
47403;SDS011;33157;51.508;4.288;2023-04-25T18:20:00;6.60;;;1.60;;
47403;SDS011;33157;51.508;4.288;2023-04-25T18:25:01;7.13;;;1.38;;
47403;SDS011;33157;51.508;4.288;2023-04-25T18:30:06;10.98;;;2.15;;
47403;SDS011;33157;51.508;4.288;2023-04-25T18:35:08;6.70;;;1.70;;
47403;SDS011;33157;51.508;4.288;2023-04-25T18:40:15;5.72;;;1.17;;
47403;SDS011;33157;51.508;4.288;2023-04-25T18:45:16;11.48;;;2.50;;
47403;SDS011;33157;51.508;4.288;2023-04-25T18:50:21;8.52;;;1.60;;
47403;SDS011;33157;51.508;4.288;2023-04-25T18:55:43;7.82;;;2.28;;
47403;SDS011;33157;51.508;4.288;2023-04-25T19:00:44;4.72;;;1.58;;
47403;SDS011;33157;51.508;4.288;2023-04-25T19:05:49;6.25;;;1.40;;
47403;SDS011;33157;51.508;4.288;2023-04-25T19:10:51;7.72;;;1.85;;
47403;SDS011;33157;51.508;4.288;2023-04-25T19:15:53;8.10;;;2.47;;
47403;SDS011;33157;51.508;4.288;2023-04-25T19:20:58;8.65;;;2.20;;
47403;SDS011;33157;51.508;4.288;2023-04-25T19:26:01;9.85;;;2.35;;
47403;SDS011;33157;51.508;4.288;2023-04-25T19:31:09;9.32;;;1.50;;
47403;SDS011;33157;51.508;4.288;2023-04-25T19:36:12;6.68;;;2.20;;
47403;SDS011;33157;51.508;4.288;2023-04-25T19:41:13;7.50;;;1.85;;
47403;SDS011;33157;51.508;4.288;2023-04-25T19:46:15;8.00;;;2.20;;
47403;SDS011;33157;51.508;4.288;2023-04-25T19:51:22;9.33;;;2.67;;
47403;SDS011;33157;51.508;4.288;2023-04-25T19:56:25;8.18;;;1.98;;
47403;SDS011;33157;51.508;4.288;2023-04-25T20:01:34;7.35;;;2.20;;
47403;SDS011;33157;51.508;4.288;2023-04-25T20:06:36;14.35;;;3.25;;
47403;SDS011;33157;51.508;4.288;2023-04-25T20:11:40;7.43;;;2.25;;
47403;SDS011;33157;51.508;4.288;2023-04-25T20:22:29;9.40;;;2.25;;
47403;SDS011;33157;51.508;4.288;2023-04-25T20:27:35;9.30;;;2.58;;
47403;SDS011;33157;51.508;4.288;2023-04-25T20:32:45;7.47;;;2.55;;
47403;SDS011;33157;51.508;4.288;2023-04-25T20:37:53;5.88;;;2.30;;
47403;SDS011;33157;51.508;4.288;2023-04-25T20:43:03;12.30;;;3.65;;
47403;SDS011;33157;51.508;4.288;2023-04-25T20:48:18;9.95;;;2.75;;
47403;SDS011;33157;51.508;4.288;2023-04-25T20:53:38;13.43;;;4.45;;
47403;SDS011;33157;51.508;4.288;2023-04-25T20:58:39;15.23;;;4.25;;
47403;SDS011;33157;51.508;4.288;2023-04-25T21:03:43;8.88;;;3.13;;
47403;SDS011;33157;51.508;4.288;2023-04-25T21:08:48;13.10;;;3.28;;
47403;SDS011;33157;51.508;4.288;2023-04-25T21:13:56;13.80;;;3.90;;
47403;SDS011;33157;51.508;4.288;2023-04-25T21:19:05;14.60;;;3.40;;
47403;SDS011;33157;51.508;4.288;2023-04-25T21:24:06;14.05;;;3.30;;
47403;SDS011;33157;51.508;4.288;2023-04-25T21:29:13;11.30;;;3.63;;
47403;SDS011;33157;51.508;4.288;2023-04-25T21:34:18;10.93;;;3.00;;
47403;SDS011;33157;51.508;4.288;2023-04-25T21:39:21;12.45;;;3.85;;
47403;SDS011;33157;51.508;4.288;2023-04-25T21:44:30;13.50;;;3.78;;
47403;SDS011;33157;51.508;4.288;2023-04-25T21:49:41;9.50;;;3.97;;
47403;SDS011;33157;51.508;4.288;2023-04-25T21:54:42;8.95;;;3.60;;
47403;SDS011;33157;51.508;4.288;2023-04-25T21:59:43;9.90;;;4.07;;
47403;SDS011;33157;51.508;4.288;2023-04-25T22:04:45;10.98;;;4.10;;
47403;SDS011;33157;51.508;4.288;2023-04-25T22:14:53;11.50;;;3.95;;
47403;SDS011;33157;51.508;4.288;2023-04-25T22:20:00;17.23;;;5.22;;
47403;SDS011;33157;51.508;4.288;2023-04-25T22:25:10;11.60;;;4.93;;
47403;SDS011;33157;51.508;4.288;2023-04-25T22:30:11;16.15;;;5.25;;
47403;SDS011;33157;51.508;4.288;2023-04-25T22:35:12;10.38;;;5.00;;
47403;SDS011;33157;51.508;4.288;2023-04-25T22:40:14;12.40;;;5.07;;
47403;SDS011;33157;51.508;4.288;2023-04-25T22:45:17;13.20;;;5.63;;
47403;SDS011;33157;51.508;4.288;2023-04-25T22:50:18;13.88;;;5.03;;
47403;SDS011;33157;51.508;4.288;2023-04-25T22:55:20;12.52;;;5.65;;
47403;SDS011;33157;51.508;4.288;2023-04-25T23:00:32;11.05;;;5.10;;
47403;SDS011;33157;51.508;4.288;2023-04-25T23:05:34;13.70;;;5.07;;
47403;SDS011;33157;51.508;4.288;2023-04-25T23:10:35;10.52;;;4.45;;
47403;SDS011;33157;51.508;4.288;2023-04-25T23:15:37;9.15;;;4.85;;
47403;SDS011;33157;51.508;4.288;2023-04-25T23:20:42;10.68;;;5.45;;
47403;SDS011;33157;51.508;4.288;2023-04-25T23:25:43;14.00;;;5.40;;
47403;SDS011;33157;51.508;4.288;2023-04-25T23:30:45;12.43;;;5.73;;
47403;SDS011;33157;51.508;4.288;2023-04-25T23:35:51;12.75;;;4.97;;
47403;SDS011;33157;51.508;4.288;2023-04-25T23:40:53;11.68;;;4.90;;
47403;SDS011;33157;51.508;4.288;2023-04-25T23:45:56;9.18;;;4.80;;
47403;SDS011;33157;51.508;4.288;2023-04-25T23:51:07;13.27;;;4.47;;
47403;SDS011;33157;51.508;4.288;2023-04-25T23:56:08;16.52;;;5.03;;
